Time,TemperatureF,DewpointF,PressureIn,WindDirection,WindDirectionDegrees,WindSpeedMPH,WindSpeedGustMPH,Humidity,HourlyPrecipIn,Conditions,Clouds,dailyrainin,SoftwareType,DateUTC
2013-05-08 00:02:00,49.6,46.8,29.48,SE,135,3.0,4.0,90,0.00,,,0.00,meteohub,2013-05-08 07:02:00,
2013-05-08 00:07:00,49.6,46.8,29.48,SE,135,1.0,4.0,90,0.00,,,0.00,meteohub,2013-05-08 07:07:00,
2013-05-08 00:12:00,49.5,46.6,29.49,East,90,1.0,3.0,90,0.00,,,0.00,meteohub,2013-05-08 07:12:00,
2013-05-08 00:17:00,49.3,46.8,29.49,SW,225,2.0,3.0,91,0.00,,,0.00,meteohub,2013-05-08 07:17:00,
2013-05-08 00:22:00,49.5,46.9,29.49,SW,225,2.0,4.0,91,0.00,,,0.00,meteohub,2013-05-08 07:22:00,
2013-05-08 00:27:00,49.5,46.6,29.49,SW,225,3.0,4.0,90,0.00,,,0.00,meteohub,2013-05-08 07:27:00,
2013-05-08 00:32:00,49.3,46.8,29.49,SW,225,3.0,4.0,91,0.00,,,0.00,meteohub,2013-05-08 07:32:00,
2013-05-08 00:37:00,49.3,46.4,29.49,South,180,3.0,4.0,90,0.00,,,0.00,meteohub,2013-05-08 07:37:00,
2013-05-08 00:42:00,49.3,46.8,29.49,SW,225,2.0,4.0,91,0.00,,,0.00,meteohub,2013-05-08 07:42:00,
2013-05-08 00:47:00,49.1,46.6,29.50,SE,135,0.0,6.0,91,0.00,,,0.00,meteohub,2013-05-08 07:47:00,
2013-05-08 00:52:00,48.7,45.9,29.49,South,180,0.0,6.0,90,0.00,,,0.00,meteohub,2013-05-08 07:52:00,
2013-05-08 00:57:00,48.4,45.9,29.49,SE,135,0.0,4.0,91,0.00,,,0.00,meteohub,2013-05-08 07:57:00,
2013-05-08 01:02:00,48.2,45.7,29.49,West,270,0.0,2.0,91,0.00,,,0.00,meteohub,2013-05-08 08:02:00,
2013-05-08 01:07:00,48.0,45.5,29.50,South,180,0.0,0.0,91,0.00,,,0.00,meteohub,2013-05-08 08:07:00,
2013-05-08 01:12:00,47.8,45.7,29.49,South,180,0.0,2.0,92,0.00,,,0.00,meteohub,2013-05-08 08:12:00,
2013-05-08 01:17:00,48.0,46.0,29.49,South,180,2.0,4.0,93,0.00,,,0.00,meteohub,2013-05-08 08:17:00,
2013-05-08 01:22:00,48.2,46.6,29.49,South,180,4.0,4.0,94,0.00,,,0.00,meteohub,2013-05-08 08:22:00,
2013-05-08 01:27:00,48.4,46.4,29.49,South,180,3.0,4.0,93,0.00,,,0.00,meteohub,2013-05-08 08:27:00,
2013-05-08 01:32:00,48.6,46.6,29.49,South,180,3.0,4.0,93,0.00,,,0.00,meteohub,2013-05-08 08:32:00,
2013-05-08 01:37:00,48.6,46.6,29.49,SW,225,3.0,4.0,93,0.00,,,0.00,meteohub,2013-05-08 08:37:00,
2013-05-08 01:42:00,48.6,46.4,29.49,SSW,203,4.0,4.0,92,0.00,,,0.00,meteohub,2013-05-08 08:42:00,
2013-05-08 01:47:00,48.6,46.4,29.49,South,180,2.0,4.0,92,0.00,,,0.00,meteohub,2013-05-08 08:47:00,
2013-05-08 01:52:00,48.7,46.6,29.49,South,180,4.0,4.0,92,0.00,,,0.00,meteohub,2013-05-08 08:52:00,
2013-05-08 01:57:00,48.7,46.6,29.49,South,180,4.0,4.0,92,0.00,,,0.00,meteohub,2013-05-08 08:57:00,
2013-05-08 02:02:00,48.7,46.6,29.49,SW,225,2.0,4.0,92,0.00,,,0.00,meteohub,2013-05-08 09:02:00,
2013-05-08 02:07:00,48.6,46.4,29.49,SW,225,2.0,5.0,92,0.00,,,0.00,meteohub,2013-05-08 09:07:00,
2013-05-08 02:12:00,48.6,46.4,29.50,South,180,3.0,5.0,92,0.00,,,0.00,meteohub,2013-05-08 09:12:00,
2013-05-08 02:17:00,48.4,46.2,29.49,SW,225,2.0,3.0,92,0.00,,,0.00,meteohub,2013-05-08 09:17:00,
2013-05-08 02:22:00,48.6,46.4,29.49,South,180,1.0,3.0,92,0.00,,,0.00,meteohub,2013-05-08 09:22:00,
2013-05-08 02:27:00,48.4,46.2,29.49,NE,45,0.0,3.0,92,0.00,,,0.00,meteohub,2013-05-08 09:27:00,
2013-05-08 02:32:00,48.2,46.0,29.49,East,90,0.0,3.0,92,0.00,,,0.00,meteohub,2013-05-08 09:32:00,
2013-05-08 02:37:00,48.0,46.0,29.50,NE,45,2.0,3.0,93,0.00,,,0.00,meteohub,2013-05-08 09:37:00,
2013-05-08 02:42:00,47.8,45.7,29.50,NE,45,0.0,3.0,92,0.00,,,0.00,meteohub,2013-05-08 09:42:00,
2013-05-08 02:47:00,47.5,45.3,29.50,NE,45,0.0,3.0,92,0.00,,,0.00,meteohub,2013-05-08 09:47:00,
2013-05-08 02:52:00,47.3,45.3,29.50,NE,45,0.0,2.0,93,0.00,,,0.00,meteohub,2013-05-08 09:52:00,
2013-05-08 02:57:00,46.9,45.0,29.50,NE,45,0.0,0.0,93,0.00,,,0.00,meteohub,2013-05-08 09:57:00,
2013-05-08 03:02:00,46.9,45.3,29.51,SW,225,4.0,4.0,94,0.00,,,0.00,meteohub,2013-05-08 10:02:00,
2013-05-08 03:07:00,47.1,45.5,29.51,SW,225,2.0,4.0,94,0.00,,,0.00,meteohub,2013-05-08 10:07:00,
2013-05-08 03:12:00,47.1,45.5,29.51,SW,225,2.0,4.0,94,0.00,,,0.00,meteohub,2013-05-08 10:12:00,
2013-05-08 03:17:00,46.9,45.3,29.51,SW,225,2.0,4.0,94,0.00,,,0.00,meteohub,2013-05-08 10:17:00,
2013-05-08 03:22:00,46.9,45.3,29.51,South,180,0.0,4.0,94,0.00,,,0.00,meteohub,2013-05-08 10:22:00,
2013-05-08 03:27:00,46.6,45.0,29.51,South,180,0.0,4.0,94,0.00,,,0.00,meteohub,2013-05-08 10:27:00,
2013-05-08 03:32:00,46.6,45.0,29.51,SW,225,2.0,2.0,94,0.00,,,0.00,meteohub,2013-05-08 10:32:00,
2013-05-08 03:37:00,46.8,45.7,29.52,SW,225,2.0,3.0,96,0.00,,,0.00,meteohub,2013-05-08 10:37:00,
2013-05-08 03:42:00,47.1,46.0,29.52,SW,225,2.0,4.0,96,0.00,,,0.00,meteohub,2013-05-08 10:42:00,
2013-05-08 03:47:00,47.3,45.9,29.52,SW,225,3.0,4.0,95,0.00,,,0.00,meteohub,2013-05-08 10:47:00,
2013-05-08 03:52:00,47.3,45.9,29.51,SW,225,4.0,4.0,95,0.00,,,0.00,meteohub,2013-05-08 10:52:00,
2013-05-08 03:57:00,47.1,45.7,29.51,SW,225,2.0,4.0,95,0.00,,,0.00,meteohub,2013-05-08 10:57:00,
2013-05-08 04:02:00,46.8,45.3,29.52,SW,225,0.0,4.0,95,0.00,,,0.00,meteohub,2013-05-08 11:02:00,
2013-05-08 04:07:00,46.4,44.8,29.52,SW,225,0.0,4.0,94,0.00,,,0.00,meteohub,2013-05-08 11:07:00,
2013-05-08 04:12:00,46.2,44.8,29.52,South,180,0.0,2.0,95,0.00,,,0.00,meteohub,2013-05-08 11:12:00,
2013-05-08 04:17:00,46.2,44.8,29.52,SW,225,0.0,2.0,95,0.00,,,0.00,meteohub,2013-05-08 11:17:00,
2013-05-08 04:22:00,46.2,45.1,29.53,SW,225,1.0,2.0,96,0.00,,,0.00,meteohub,2013-05-08 11:22:00,
2013-05-08 04:27:00,46.6,45.9,29.52,SW,225,2.0,3.0,97,0.00,,,0.00,meteohub,2013-05-08 11:27:00,
2013-05-08 04:32:00,46.8,46.0,29.52,SW,225,0.0,3.0,97,0.00,,,0.00,meteohub,2013-05-08 11:32:00,
2013-05-08 04:37:00,46.8,46.0,29.52,SW,225,2.0,3.0,97,0.00,,,0.00,meteohub,2013-05-08 11:37:00,
2013-05-08 04:42:00,46.9,46.2,29.52,SW,225,3.0,3.0,97,0.00,,,0.00,meteohub,2013-05-08 11:42:00,
2013-05-08 04:47:00,47.1,46.4,29.53,SW,225,3.0,3.0,97,0.00,,,0.00,meteohub,2013-05-08 11:47:00,
2013-05-08 04:52:00,47.3,46.6,29.52,South,180,3.0,3.0,97,0.00,,,0.00,meteohub,2013-05-08 11:52:00,
2013-05-08 04:57:00,47.3,46.6,29.53,SW,225,4.0,4.0,97,0.00,,,0.00,meteohub,2013-05-08 11:57:00,
2013-05-08 05:02:00,47.3,46.6,29.52,SW,225,4.0,4.0,97,0.00,,,0.00,meteohub,2013-05-08 12:02:00,
2013-05-08 05:07:00,47.5,46.8,29.53,SW,225,3.0,4.0,97,0.00,,,0.00,meteohub,2013-05-08 12:07:00,
2013-05-08 05:12:00,47.5,46.4,29.52,SW,225,3.0,4.0,96,0.00,,,0.00,meteohub,2013-05-08 12:12:00,
2013-05-08 05:17:00,47.5,46.4,29.52,SW,225,2.0,4.0,96,0.00,,,0.00,meteohub,2013-05-08 12:17:00,
2013-05-08 05:22:00,47.5,46.4,29.53,SW,225,2.0,4.0,96,0.00,,,0.00,meteohub,2013-05-08 12:22:00,
2013-05-08 05:27:00,47.7,46.6,29.53,South,180,0.0,4.0,96,0.00,,,0.00,meteohub,2013-05-08 12:27:00,
2013-05-08 05:32:00,47.7,46.6,29.53,South,180,3.0,4.0,96,0.00,,,0.00,meteohub,2013-05-08 12:32:00,
2013-05-08 05:37:00,48.0,46.9,29.53,SW,225,2.0,4.0,96,0.00,,,0.00,meteohub,2013-05-08 12:37:00,
2013-05-08 05:42:00,48.2,47.1,29.53,SW,225,3.0,4.0,96,0.00,,,0.00,meteohub,2013-05-08 12:42:00,
2013-05-08 05:47:00,48.6,47.1,29.53,SW,225,0.0,4.0,95,0.00,,,0.00,meteohub,2013-05-08 12:47:00,
2013-05-08 05:52:00,48.6,47.1,29.53,SW,225,0.0,4.0,95,0.00,,,0.00,meteohub,2013-05-08 12:52:00,
2013-05-08 05:57:00,48.6,47.1,29.53,SW,225,2.0,4.0,95,0.00,,,0.00,meteohub,2013-05-08 12:57:00,
2013-05-08 06:02:00,48.7,47.3,29.53,SW,225,0.0,2.0,95,0.00,,,0.00,meteohub,2013-05-08 13:02:00,
2013-05-08 06:07:00,48.9,47.5,29.53,SW,225,2.0,2.0,95,0.00,,,0.00,meteohub,2013-05-08 13:07:00,
2013-05-08 06:12:00,49.1,47.5,29.54,SW,225,0.0,3.0,94,0.00,,,0.00,meteohub,2013-05-08 13:12:00,
2013-05-08 06:17:00,49.1,47.5,29.54,SW,225,0.0,3.0,94,0.00,,,0.00,meteohub,2013-05-08 13:17:00,
2013-05-08 06:22:00,49.3,47.7,29.54,SW,225,2.0,3.0,94,0.00,,,0.00,meteohub,2013-05-08 13:22:00,
2013-05-08 06:27:00,49.5,47.8,29.54,SW,225,0.0,2.0,94,0.00,,,0.00,meteohub,2013-05-08 13:27:00,
2013-05-08 06:32:00,49.5,47.5,29.55,SW,225,0.0,2.0,93,0.00,,,0.00,meteohub,2013-05-08 13:32:00,
2013-05-08 06:37:00,49.6,47.7,29.55,SW,225,0.0,2.0,93,0.00,,,0.00,meteohub,2013-05-08 13:37:00,
2013-05-08 06:42:00,49.8,47.8,29.54,SW,225,1.0,2.0,93,0.00,,,0.00,meteohub,2013-05-08 13:42:00,
2013-05-08 06:47:00,50.0,48.0,29.55,SW,225,0.0,2.0,93,0.00,,,0.00,meteohub,2013-05-08 13:47:00,
2013-05-08 06:52:00,50.2,48.2,29.55,West,270,1.0,2.0,93,0.00,,,0.00,meteohub,2013-05-08 13:52:00,
2013-05-08 06:57:00,50.2,48.0,29.55,West,270,0.0,2.0,92,0.00,,,0.00,meteohub,2013-05-08 13:57:00,
2013-05-08 07:02:00,50.2,48.0,29.55,West,270,1.0,2.0,92,0.00,,,0.00,meteohub,2013-05-08 14:02:00,
2013-05-08 07:07:00,50.4,47.8,29.55,SW,225,1.0,2.0,91,0.00,,,0.00,meteohub,2013-05-08 14:07:00,
2013-05-08 07:12:00,50.4,47.8,29.55,SW,225,0.0,2.0,91,0.00,,,0.00,meteohub,2013-05-08 14:12:00,
2013-05-08 07:17:00,50.5,48.0,29.55,West,270,0.0,2.0,91,0.00,,,0.00,meteohub,2013-05-08 14:17:00,
2013-05-08 07:22:00,50.9,48.0,29.55,North,0,0.0,2.0,90,0.00,,,0.00,meteohub,2013-05-08 14:22:00,
2013-05-08 07:27:00,51.1,48.2,29.56,NE,45,0.0,0.0,90,0.00,,,0.00,meteohub,2013-05-08 14:27:00,
2013-05-08 07:32:00,51.1,48.0,29.55,NE,45,0.0,2.0,89,0.00,,,0.00,meteohub,2013-05-08 14:32:00,
2013-05-08 07:37:00,51.1,48.0,29.56,East,90,2.0,2.0,89,0.00,,,0.00,meteohub,2013-05-08 14:37:00,
2013-05-08 07:42:00,51.3,48.2,29.56,East,90,2.0,2.0,89,0.00,,,0.00,meteohub,2013-05-08 14:42:00,
2013-05-08 07:47:00,51.3,48.2,29.56,NE,45,2.0,2.0,89,0.00,,,0.00,meteohub,2013-05-08 14:47:00,
2013-05-08 07:52:00,51.4,48.0,29.56,NE,45,2.0,2.0,88,0.00,,,0.00,meteohub,2013-05-08 14:52:00,
2013-05-08 07:57:00,51.3,47.8,29.56,NE,45,2.0,2.0,88,0.00,,,0.00,meteohub,2013-05-08 14:57:00,
2013-05-08 08:02:00,51.3,47.8,29.56,NE,45,1.0,2.0,88,0.00,,,0.00,meteohub,2013-05-08 15:02:00,
2013-05-08 08:07:00,51.3,47.8,29.56,East,90,2.0,2.0,88,0.00,,,0.00,meteohub,2013-05-08 15:07:00,
2013-05-08 08:12:00,51.3,47.8,29.56,East,90,2.0,2.0,88,0.00,,,0.00,meteohub,2013-05-08 15:12:00,
2013-05-08 08:17:00,51.4,48.0,29.56,NE,45,2.0,2.0,88,0.00,,,0.00,meteohub,2013-05-08 15:17:00,
2013-05-08 08:22:00,51.6,48.2,29.56,NE,45,2.0,2.0,88,0.00,,,0.00,meteohub,2013-05-08 15:22:00,
2013-05-08 08:27:00,51.6,48.2,29.56,NE,45,1.0,2.0,88,0.00,,,0.00,meteohub,2013-05-08 15:27:00,
2013-05-08 08:32:00,52.0,48.2,29.56,NE,45,2.0,2.0,87,0.00,,,0.00,meteohub,2013-05-08 15:32:00,
2013-05-08 08:37:00,52.2,48.4,29.57,NE,45,2.0,2.0,87,0.00,,,0.00,meteohub,2013-05-08 15:37:00,
2013-05-08 08:42:00,52.2,48.4,29.57,NE,45,1.0,2.0,87,0.00,,,0.00,meteohub,2013-05-08 15:42:00,
2013-05-08 08:47:00,52.3,48.2,29.57,NE,45,3.0,3.0,86,0.00,,,0.00,meteohub,2013-05-08 15:47:00,
2013-05-08 08:52:00,52.5,48.4,29.57,NE,45,2.0,3.0,86,0.00,,,0.00,meteohub,2013-05-08 15:52:00,
2013-05-08 08:57:00,52.7,48.6,29.57,East,90,2.0,3.0,86,0.00,,,0.00,meteohub,2013-05-08 15:57:00,
2013-05-08 09:02:00,53.1,48.9,29.57,NW,315,0.0,3.0,86,0.00,,,0.00,meteohub,2013-05-08 16:02:00,
2013-05-08 09:07:00,53.2,48.9,29.57,SW,225,4.0,4.0,85,0.00,,,0.00,meteohub,2013-05-08 16:07:00,
2013-05-08 09:12:00,52.9,48.6,29.57,West,270,2.0,4.0,85,0.00,,,0.00,meteohub,2013-05-08 16:12:00,
2013-05-08 09:17:00,53.1,48.7,29.57,West,270,0.0,4.0,85,0.00,,,0.00,meteohub,2013-05-08 16:17:00,
2013-05-08 09:22:00,53.2,48.6,29.57,South,180,2.0,4.0,84,0.00,,,0.00,meteohub,2013-05-08 16:22:00,
2013-05-08 09:27:00,53.4,48.7,29.57,West,270,1.0,4.0,84,0.00,,,0.00,meteohub,2013-05-08 16:27:00,
2013-05-08 09:32:00,53.4,48.4,29.57,West,270,1.0,4.0,83,0.00,,,0.00,meteohub,2013-05-08 16:32:00,
2013-05-08 09:37:00,53.4,48.4,29.57,SW,225,4.0,4.0,83,0.00,,,0.00,meteohub,2013-05-08 16:37:00,
2013-05-08 09:42:00,53.2,48.9,29.57,SE,135,2.0,5.0,85,0.00,,,0.00,meteohub,2013-05-08 16:42:00,
2013-05-08 09:47:00,53.4,48.4,29.57,SW,225,2.0,5.0,83,0.00,,,0.00,meteohub,2013-05-08 16:47:00,
2013-05-08 09:52:00,53.6,48.6,29.57,SW,225,2.0,5.0,83,0.00,,,0.00,meteohub,2013-05-08 16:52:00,
2013-05-08 09:57:00,54.1,49.1,29.57,SE,135,1.0,3.0,83,0.00,,,0.00,meteohub,2013-05-08 16:57:00,
2013-05-08 10:02:00,54.1,48.4,29.58,SW,225,2.0,3.0,81,0.00,,,0.00,meteohub,2013-05-08 17:02:00,
2013-05-08 10:07:00,54.3,48.9,29.57,South,180,2.0,4.0,82,0.00,,,0.00,meteohub,2013-05-08 17:07:00,
2013-05-08 10:12:00,54.7,48.9,29.58,SSE,158,2.0,4.0,81,0.00,,,0.00,meteohub,2013-05-08 17:12:00,
2013-05-08 10:17:00,54.5,48.4,29.58,SW,225,2.0,5.0,80,0.00,,,0.00,meteohub,2013-05-08 17:17:00,
2013-05-08 10:22:00,55.2,49.5,29.58,SW,225,2.0,5.0,81,0.00,,,0.00,meteohub,2013-05-08 17:22:00,
2013-05-08 10:27:00,55.6,48.9,29.58,SW,225,3.0,5.0,78,0.00,,,0.00,meteohub,2013-05-08 17:27:00,
2013-05-08 10:32:00,55.0,48.9,29.58,NE,45,2.0,4.0,80,0.00,,,0.00,meteohub,2013-05-08 17:32:00,
2013-05-08 10:37:00,55.2,48.7,29.58,North,0,2.0,4.0,79,0.00,,,0.00,meteohub,2013-05-08 17:37:00,
2013-05-08 10:42:00,55.6,49.1,29.58,SW,225,2.0,4.0,79,0.00,,,0.00,meteohub,2013-05-08 17:42:00,
2013-05-08 10:47:00,55.8,48.9,29.58,South,180,3.0,5.0,78,0.00,,,0.00,meteohub,2013-05-08 17:47:00,
2013-05-08 10:52:00,56.3,49.5,29.58,SE,135,2.0,5.0,78,0.00,,,0.00,meteohub,2013-05-08 17:52:00,
2013-05-08 10:57:00,56.8,49.3,29.58,East,90,2.0,5.0,76,0.00,,,0.00,meteohub,2013-05-08 17:57:00,
2013-05-08 11:02:00,57.6,50.0,29.58,SW,225,2.0,4.0,76,0.00,,,0.00,meteohub,2013-05-08 18:02:00,
2013-05-08 11:07:00,58.1,50.2,29.59,SW,225,3.0,3.0,75,0.00,,,0.00,meteohub,2013-05-08 18:07:00,
2013-05-08 11:12:00,57.9,50.0,29.59,SW,225,3.0,4.0,75,0.00,,,0.00,meteohub,2013-05-08 18:12:00,
2013-05-08 11:17:00,58.3,50.0,29.59,NE,45,2.0,4.0,74,0.00,,,0.00,meteohub,2013-05-08 18:17:00,
2013-05-08 11:22:00,58.6,49.6,29.59,SE,135,2.0,4.0,72,0.00,,,0.00,meteohub,2013-05-08 18:22:00,
2013-05-08 11:27:00,59.0,49.3,29.59,SE,135,3.0,4.0,70,0.00,,,0.00,meteohub,2013-05-08 18:27:00,
2013-05-08 11:32:00,59.7,50.4,29.59,North,0,2.0,4.0,71,0.00,,,0.00,meteohub,2013-05-08 18:32:00,
2013-05-08 11:37:00,60.6,50.7,29.59,East,90,2.0,4.0,70,0.00,,,0.00,meteohub,2013-05-08 18:37:00,
2013-05-08 11:42:00,60.3,49.3,29.59,NE,45,5.0,5.0,67,0.00,,,0.00,meteohub,2013-05-08 18:42:00,
2013-05-08 11:47:00,60.4,49.8,29.59,East,90,3.0,5.0,68,0.00,,,0.00,meteohub,2013-05-08 18:47:00,
2013-05-08 11:52:00,60.8,50.2,29.59,SE,135,3.0,7.0,68,0.00,,,0.00,meteohub,2013-05-08 18:52:00,
2013-05-08 11:57:00,61.3,50.4,29.59,NE,45,4.0,7.0,67,0.00,,,0.00,meteohub,2013-05-08 18:57:00,
2013-05-08 12:02:00,61.0,49.5,29.58,NE,45,6.0,7.0,66,0.00,,,0.00,meteohub,2013-05-08 19:02:00,
2013-05-08 12:07:00,60.4,49.5,29.58,NE,45,4.0,6.0,67,0.00,,,0.00,meteohub,2013-05-08 19:07:00,
2013-05-08 12:12:00,61.7,51.4,29.58,South,180,2.0,6.0,69,0.00,,,0.00,meteohub,2013-05-08 19:12:00,
2013-05-08 12:17:00,62.6,50.2,29.57,NE,45,4.0,6.0,64,0.00,,,0.00,meteohub,2013-05-08 19:17:00,
2013-05-08 12:22:00,62.8,51.3,29.57,North,0,1.0,8.0,66,0.00,,,0.00,meteohub,2013-05-08 19:22:00,
2013-05-08 12:27:00,64.4,51.6,29.57,North,0,2.0,8.0,63,0.00,,,0.00,meteohub,2013-05-08 19:27:00,
2013-05-08 12:32:00,66.0,51.8,29.57,NW,315,3.0,8.0,60,0.00,,,0.00,meteohub,2013-05-08 19:32:00,
2013-05-08 12:37:00,65.8,52.0,29.57,West,270,3.0,4.0,61,0.00,,,0.00,meteohub,2013-05-08 19:37:00,
2013-05-08 12:42:00,66.2,53.2,29.57,South,180,2.0,7.0,63,0.00,,,0.00,meteohub,2013-05-08 19:42:00,
2013-05-08 12:47:00,67.3,53.8,29.57,South,180,2.0,7.0,62,0.00,,,0.00,meteohub,2013-05-08 19:47:00,
2013-05-08 12:52:00,68.2,51.4,29.57,North,0,4.0,5.0,55,0.00,,,0.00,meteohub,2013-05-08 19:52:00,
2013-05-08 12:57:00,68.4,51.6,29.57,East,90,5.0,5.0,55,0.00,,,0.00,meteohub,2013-05-08 19:57:00,
2013-05-08 13:02:00,67.1,51.4,29.56,NW,315,3.0,8.0,57,0.00,,,0.00,meteohub,2013-05-08 20:02:00,
2013-05-08 13:07:00,66.2,50.9,29.57,North,0,4.0,8.0,58,0.00,,,0.00,meteohub,2013-05-08 20:07:00,
2013-05-08 13:12:00,66.6,51.8,29.56,NE,45,6.0,8.0,59,0.00,,,0.00,meteohub,2013-05-08 20:12:00,
2013-05-08 13:17:00,67.3,51.1,29.56,NE,45,6.0,7.0,56,0.00,,,0.00,meteohub,2013-05-08 20:17:00,
2013-05-08 13:22:00,66.7,51.4,29.56,NE,45,4.0,7.0,58,0.00,,,0.00,meteohub,2013-05-08 20:22:00,
2013-05-08 13:27:00,67.8,51.6,29.56,NE,45,4.0,6.0,56,0.00,,,0.00,meteohub,2013-05-08 20:27:00,
2013-05-08 13:32:00,68.4,51.6,29.56,North,0,4.0,6.0,55,0.00,,,0.00,meteohub,2013-05-08 20:32:00,
2013-05-08 13:37:00,68.7,52.0,29.56,East,90,2.0,5.0,55,0.00,,,0.00,meteohub,2013-05-08 20:37:00,
2013-05-08 13:42:00,68.2,52.3,29.55,East,90,4.0,5.0,57,0.00,,,0.00,meteohub,2013-05-08 20:42:00,
2013-05-08 13:47:00,68.9,52.5,29.56,North,0,4.0,7.0,56,0.00,,,0.00,meteohub,2013-05-08 20:47:00,
2013-05-08 13:52:00,69.3,52.9,29.55,North,0,2.0,7.0,56,0.00,,,0.00,meteohub,2013-05-08 20:52:00,
2013-05-08 13:57:00,69.8,52.3,29.55,NE,45,4.0,7.0,54,0.00,,,0.00,meteohub,2013-05-08 20:57:00,
2013-05-08 14:02:00,70.5,53.1,29.55,NE,45,7.0,7.0,54,0.00,,,0.00,meteohub,2013-05-08 21:02:00,
2013-05-08 14:07:00,70.5,53.1,29.55,NE,45,2.0,7.0,54,0.00,,,0.00,meteohub,2013-05-08 21:07:00,
2013-05-08 14:12:00,70.3,53.4,29.55,NE,45,5.0,7.0,55,0.00,,,0.00,meteohub,2013-05-08 21:12:00,
2013-05-08 14:17:00,70.0,53.6,29.54,NE,45,4.0,7.0,56,0.00,,,0.00,meteohub,2013-05-08 21:17:00,
2013-05-08 14:22:00,70.7,53.8,29.55,East,90,7.0,7.0,55,0.00,,,0.00,meteohub,2013-05-08 21:22:00,
2013-05-08 14:27:00,70.5,54.1,29.54,East,90,4.0,8.0,56,0.00,,,0.00,meteohub,2013-05-08 21:27:00,
2013-05-08 14:32:00,71.6,54.1,29.54,NE,45,6.0,8.0,54,0.00,,,0.00,meteohub,2013-05-08 21:32:00,
2013-05-08 14:37:00,71.8,54.3,29.54,NE,45,1.0,8.0,54,0.00,,,0.00,meteohub,2013-05-08 21:37:00,
2013-05-08 14:42:00,72.0,54.0,29.54,North,0,4.0,7.0,53,0.00,,,0.00,meteohub,2013-05-08 21:42:00,
2013-05-08 14:47:00,72.5,54.3,29.54,NE,45,4.0,7.0,53,0.00,,,0.00,meteohub,2013-05-08 21:47:00,
2013-05-08 14:52:00,73.0,54.9,29.54,NE,45,2.0,7.0,53,0.00,,,0.00,meteohub,2013-05-08 21:52:00,
2013-05-08 14:57:00,73.0,54.3,29.54,East,90,5.0,5.0,52,0.00,,,0.00,meteohub,2013-05-08 21:57:00,
2013-05-08 15:02:00,73.4,55.2,29.54,North,0,4.0,6.0,53,0.00,,,0.00,meteohub,2013-05-08 22:02:00,
2013-05-08 15:07:00,73.0,54.3,29.54,North,0,4.0,7.0,52,0.00,,,0.00,meteohub,2013-05-08 22:07:00,
2013-05-08 15:12:00,73.2,54.5,29.53,NE,45,4.0,7.0,52,0.00,,,0.00,meteohub,2013-05-08 22:12:00,
2013-05-08 15:17:00,73.4,54.7,29.54,NE,45,7.0,7.0,52,0.00,,,0.00,meteohub,2013-05-08 22:17:00,
2013-05-08 15:22:00,74.5,55.8,29.53,North,0,4.0,7.0,52,0.00,,,0.00,meteohub,2013-05-08 22:22:00,
2013-05-08 15:27:00,75.6,54.5,29.52,North,0,4.0,7.0,48,0.00,,,0.00,meteohub,2013-05-08 22:27:00,
2013-05-08 15:32:00,75.2,54.7,29.52,North,0,3.0,8.0,49,0.00,,,0.00,meteohub,2013-05-08 22:32:00,
2013-05-08 15:37:00,74.3,55.0,29.52,East,90,6.0,8.0,51,0.00,,,0.00,meteohub,2013-05-08 22:37:00,
2013-05-08 15:42:00,73.8,55.0,29.52,NE,45,4.0,8.0,52,0.00,,,0.00,meteohub,2013-05-08 22:42:00,
2013-05-08 15:47:00,73.9,55.2,29.52,NE,45,4.0,8.0,52,0.00,,,0.00,meteohub,2013-05-08 22:47:00,
2013-05-08 15:52:00,74.7,54.9,29.52,North,0,6.0,8.0,50,0.00,,,0.00,meteohub,2013-05-08 22:52:00,
2013-05-08 15:57:00,74.8,55.0,29.51,East,90,5.0,8.0,50,0.00,,,0.00,meteohub,2013-05-08 22:57:00,
2013-05-08 16:03:00,75.2,55.2,29.51,NE,45,5.0,8.0,50,0.00,,,0.00,meteohub,2013-05-08 23:03:00,
2013-05-08 16:08:00,75.6,55.6,29.51,NE,45,4.0,7.0,50,0.00,,,0.00,meteohub,2013-05-08 23:08:00,
2013-05-08 16:13:00,76.5,55.9,29.51,NE,45,3.0,7.0,49,0.00,,,0.00,meteohub,2013-05-08 23:13:00,
2013-05-08 16:18:00,76.5,55.4,29.51,North,0,5.0,5.0,48,0.00,,,0.00,meteohub,2013-05-08 23:18:00,
2013-05-08 16:23:00,75.9,55.4,29.50,NE,45,4.0,5.0,49,0.00,,,0.00,meteohub,2013-05-08 23:23:00,
2013-05-08 16:28:00,76.6,55.4,29.51,North,0,3.0,6.0,48,0.00,,,0.00,meteohub,2013-05-08 23:28:00,
2013-05-08 16:33:00,76.5,55.9,29.51,NE,45,4.0,6.0,49,0.00,,,0.00,meteohub,2013-05-08 23:33:00,
2013-05-08 16:38:00,77.4,56.1,29.50,North,0,3.0,6.0,48,0.00,,,0.00,meteohub,2013-05-08 23:38:00,
2013-05-08 16:43:00,77.7,55.2,29.50,NE,45,4.0,6.0,46,0.00,,,0.00,meteohub,2013-05-08 23:43:00,
2013-05-08 16:48:00,77.0,55.8,29.50,North,0,3.0,6.0,48,0.00,,,0.00,meteohub,2013-05-08 23:48:00,
2013-05-08 16:53:00,78.3,55.8,29.50,NE,45,6.0,6.0,46,0.00,,,0.00,meteohub,2013-05-08 23:53:00,
2013-05-08 16:58:00,78.1,55.6,29.50,North,0,5.0,6.0,46,0.00,,,0.00,meteohub,2013-05-08 23:58:00,
2013-05-08 17:03:00,77.4,56.1,29.50,North,0,4.0,6.0,48,0.00,,,0.00,meteohub,2013-05-09 00:03:00,
2013-05-08 17:08:00,78.1,56.8,29.50,North,0,3.0,6.0,48,0.00,,,0.00,meteohub,2013-05-09 00:08:00,
2013-05-08 17:13:00,77.9,56.1,29.50,East,90,4.0,7.0,47,0.00,,,0.00,meteohub,2013-05-09 00:13:00,
2013-05-08 17:18:00,78.1,55.6,29.50,North,0,3.0,7.0,46,0.00,,,0.00,meteohub,2013-05-09 00:18:00,
2013-05-08 17:23:00,78.6,56.1,29.50,NE,45,2.0,7.0,46,0.00,,,0.00,meteohub,2013-05-09 00:23:00,
2013-05-08 17:28:00,77.7,55.2,29.51,NE,45,4.0,4.0,46,0.00,,,0.00,meteohub,2013-05-09 00:28:00,
2013-05-08 17:33:00,77.5,55.8,29.50,NE,45,4.0,6.0,47,0.00,,,0.00,meteohub,2013-05-09 00:33:00,
2013-05-08 17:38:00,77.9,55.4,29.50,WSW,248,3.0,6.0,46,0.00,,,0.00,meteohub,2013-05-09 00:38:00,
2013-05-08 17:43:00,78.3,55.2,29.51,NE,45,4.0,6.0,45,0.00,,,0.00,meteohub,2013-05-09 00:43:00,
2013-05-08 17:49:00,77.5,55.0,29.51,North,0,3.0,5.0,46,0.00,,,0.00,meteohub,2013-05-09 00:49:00,
2013-05-08 17:54:00,77.4,55.6,29.51,NW,315,4.0,7.0,47,0.00,,,0.00,meteohub,2013-05-09 00:54:00,
2013-05-08 17:59:00,77.4,55.6,29.51,NE,45,3.0,7.0,47,0.00,,,0.00,meteohub,2013-05-09 00:59:00,
2013-05-08 18:04:00,77.5,55.8,29.51,East,90,2.0,7.0,47,0.00,,,0.00,meteohub,2013-05-09 01:04:00,
2013-05-08 18:09:00,78.1,55.6,29.51,East,90,4.0,5.0,46,0.00,,,0.00,meteohub,2013-05-09 01:09:00,
2013-05-08 18:14:00,77.4,55.0,29.51,North,0,4.0,4.0,46,0.00,,,0.00,meteohub,2013-05-09 01:14:00,
2013-05-08 18:19:00,77.5,55.8,29.51,North,0,2.0,4.0,47,0.00,,,0.00,meteohub,2013-05-09 01:19:00,
2013-05-08 18:24:00,77.4,55.0,29.51,NE,45,5.0,5.0,46,0.00,,,0.00,meteohub,2013-05-09 01:24:00,
2013-05-08 18:29:00,78.3,57.0,29.51,North,0,1.0,5.0,48,0.00,,,0.00,meteohub,2013-05-09 01:29:00,
2013-05-08 18:34:00,78.8,55.0,29.51,NE,45,2.0,5.0,44,0.00,,,0.00,meteohub,2013-05-09 01:34:00,
2013-05-08 18:39:00,78.4,55.4,29.50,North,0,1.0,5.0,45,0.00,,,0.00,meteohub,2013-05-09 01:39:00,
2013-05-08 18:44:00,78.1,55.6,29.51,East,90,1.0,4.0,46,0.00,,,0.00,meteohub,2013-05-09 01:44:00,
2013-05-08 18:49:00,77.0,55.8,29.50,SW,225,1.0,4.0,48,0.00,,,0.00,meteohub,2013-05-09 01:49:00,
2013-05-08 18:54:00,76.1,55.0,29.51,SW,225,4.0,4.0,48,0.00,,,0.00,meteohub,2013-05-09 01:54:00,
2013-05-08 18:59:00,75.2,54.7,29.50,SW,225,2.0,4.0,49,0.00,,,0.00,meteohub,2013-05-09 01:59:00,
2013-05-08 19:04:00,72.7,55.6,29.51,SW,225,4.0,4.0,55,0.00,,,0.00,meteohub,2013-05-09 02:04:00,
2013-05-08 19:09:00,71.1,54.5,29.50,South,180,3.0,6.0,56,0.00,,,0.00,meteohub,2013-05-09 02:09:00,
2013-05-08 19:14:00,69.1,54.7,29.51,South,180,3.0,7.0,60,0.00,,,0.00,meteohub,2013-05-09 02:14:00,
2013-05-08 19:19:00,68.4,54.3,29.52,SW,225,6.0,7.0,61,0.00,,,0.00,meteohub,2013-05-09 02:19:00,
2013-05-08 19:24:00,67.6,54.1,29.52,South,180,4.0,7.0,62,0.00,,,0.00,meteohub,2013-05-09 02:24:00,
2013-05-08 19:29:00,66.7,53.8,29.52,SW,225,8.0,8.0,63,0.00,,,0.00,meteohub,2013-05-09 02:29:00,
2013-05-08 19:34:00,66.0,53.4,29.52,SW,225,4.0,8.0,64,0.00,,,0.00,meteohub,2013-05-09 02:34:00,
2013-05-08 19:40:00,65.3,53.2,29.52,South,180,6.0,8.0,65,0.00,,,0.00,meteohub,2013-05-09 02:40:00,
2013-05-08 19:45:00,64.8,53.1,29.52,SW,225,4.0,8.0,66,0.00,,,0.00,meteohub,2013-05-09 02:45:00,
2013-05-08 19:50:00,63.9,52.7,29.52,SW,225,5.0,8.0,67,0.00,,,0.00,meteohub,2013-05-09 02:50:00,
2013-05-08 19:55:00,63.1,52.3,29.52,South,180,4.0,6.0,68,0.00,,,0.00,meteohub,2013-05-09 02:55:00,
2013-05-08 20:00:00,62.6,52.7,29.52,SW,225,4.0,6.0,70,0.00,,,0.00,meteohub,2013-05-09 03:00:00,
2013-05-08 20:05:00,62.1,52.5,29.52,SW,225,4.0,6.0,71,0.00,,,0.00,meteohub,2013-05-09 03:05:00,
2013-05-08 20:10:00,61.5,52.0,29.53,SW,225,5.0,6.0,71,0.00,,,0.00,meteohub,2013-05-09 03:10:00,
2013-05-08 20:15:00,61.0,52.0,29.53,SW,225,4.0,6.0,72,0.00,,,0.00,meteohub,2013-05-09 03:15:00,
2013-05-08 20:20:00,60.6,51.6,29.53,SW,225,5.0,6.0,72,0.00,,,0.00,meteohub,2013-05-09 03:20:00,
2013-05-08 20:25:00,60.1,51.4,29.53,SW,225,6.0,8.0,73,0.00,,,0.00,meteohub,2013-05-09 03:25:00,
2013-05-08 20:30:00,59.7,51.1,29.53,South,180,8.0,8.0,73,0.00,,,0.00,meteohub,2013-05-09 03:30:00,
2013-05-08 20:35:00,59.5,50.9,29.53,SW,225,9.0,9.0,73,0.00,,,0.00,meteohub,2013-05-09 03:35:00,
2013-05-08 20:40:00,59.2,50.5,29.54,South,180,8.0,9.0,73,0.00,,,0.00,meteohub,2013-05-09 03:40:00,
2013-05-08 20:45:00,59.0,50.7,29.53,South,180,6.0,9.0,74,0.00,,,0.00,meteohub,2013-05-09 03:45:00,
2013-05-08 20:50:00,58.6,50.4,29.54,South,180,7.0,9.0,74,0.00,,,0.00,meteohub,2013-05-09 03:50:00,
2013-05-08 20:55:00,58.3,50.4,29.54,South,180,4.0,8.0,75,0.00,,,0.00,meteohub,2013-05-09 03:55:00,
2013-05-08 21:00:00,57.9,50.4,29.55,SW,225,4.0,8.0,76,0.00,,,0.00,meteohub,2013-05-09 04:00:00,
2013-05-08 21:01:00,57.9,50.0,29.55,South,180,5.0,8.0,75,0.00,,,0.00,meteohub,2013-05-09 04:01:00,
2013-05-08 21:02:00,57.9,50.4,29.55,West,270,6.0,8.0,76,0.00,,,0.00,meteohub,2013-05-09 04:02:00,
2013-05-08 21:03:00,57.7,50.2,29.55,SW,225,7.0,8.0,76,0.00,,,0.00,meteohub,2013-05-09 04:03:00,
2013-05-08 21:04:00,57.7,50.2,29.55,SW,225,9.0,9.0,76,0.00,,,0.00,meteohub,2013-05-09 04:04:00,
2013-05-08 21:09:00,57.6,50.0,29.55,SE,135,6.0,9.0,76,0.00,,,0.00,meteohub,2013-05-09 04:09:00,
2013-05-08 21:14:00,57.2,49.6,29.55,SW,225,7.0,9.0,76,0.00,,,0.00,meteohub,2013-05-09 04:14:00,
2013-05-08 21:20:00,56.8,49.6,29.56,SW,225,4.0,9.0,77,0.00,,,0.00,meteohub,2013-05-09 04:20:00,
2013-05-08 21:25:00,56.5,49.3,29.56,South,180,5.0,9.0,77,0.00,,,0.00,meteohub,2013-05-09 04:25:00,
2013-05-08 21:30:00,56.3,49.1,29.56,South,180,5.0,9.0,77,0.00,,,0.00,meteohub,2013-05-09 04:30:00,
2013-05-08 21:35:00,56.1,48.9,29.57,South,180,5.0,7.0,77,0.00,,,0.00,meteohub,2013-05-09 04:35:00,
2013-05-08 21:40:00,56.1,48.9,29.56,SW,225,4.0,8.0,77,0.00,,,0.00,meteohub,2013-05-09 04:40:00,
2013-05-08 21:45:00,55.9,49.1,29.57,SW,225,5.0,8.0,78,0.00,,,0.00,meteohub,2013-05-09 04:45:00,
2013-05-08 21:50:00,55.8,48.7,29.57,SW,225,5.0,8.0,77,0.00,,,0.00,meteohub,2013-05-09 04:50:00,
2013-05-08 21:55:00,55.8,48.7,29.57,SW,225,6.0,7.0,77,0.00,,,0.00,meteohub,2013-05-09 04:55:00,
2013-05-08 22:00:00,55.8,48.7,29.57,SW,225,7.0,10.0,77,0.00,,,0.00,meteohub,2013-05-09 05:00:00,
2013-05-08 22:05:00,55.4,48.7,29.57,SW,225,4.0,10.0,78,0.00,,,0.00,meteohub,2013-05-09 05:05:00,
2013-05-08 22:10:00,55.0,48.6,29.57,SW,225,5.0,10.0,79,0.00,,,0.00,meteohub,2013-05-09 05:10:00,
2013-05-08 22:15:00,54.7,48.6,29.57,SW,225,4.0,8.0,80,0.00,,,0.00,meteohub,2013-05-09 05:15:00,
2013-05-08 22:20:00,54.5,48.4,29.57,SW,225,3.0,5.0,80,0.00,,,0.00,meteohub,2013-05-09 05:20:00,
2013-05-08 22:25:00,54.5,48.4,29.57,SW,225,4.0,5.0,80,0.00,,,0.00,meteohub,2013-05-09 05:25:00,
2013-05-08 22:30:00,54.7,48.6,29.57,SW,225,4.0,4.0,80,0.00,,,0.00,meteohub,2013-05-09 05:30:00,
2013-05-08 22:35:00,54.7,48.4,29.57,SW,225,4.0,4.0,79,0.00,,,0.00,meteohub,2013-05-09 05:35:00,
2013-05-08 22:40:00,54.9,48.6,29.57,SW,225,3.0,5.0,79,0.00,,,0.00,meteohub,2013-05-09 05:40:00,
2013-05-08 22:45:00,54.5,48.2,29.57,SW,225,4.0,5.0,79,0.00,,,0.00,meteohub,2013-05-09 05:45:00,
2013-05-08 22:51:00,54.3,48.2,29.57,SW,225,3.0,5.0,80,0.00,,,0.00,meteohub,2013-05-09 05:51:00,
2013-05-08 22:56:00,54.1,48.0,29.57,SW,225,3.0,4.0,80,0.00,,,0.00,meteohub,2013-05-09 05:56:00,
2013-05-08 23:01:00,54.0,48.2,29.57,SW,225,6.0,6.0,81,0.00,,,0.00,meteohub,2013-05-09 06:01:00,
2013-05-08 23:06:00,53.8,48.0,29.57,SW,225,4.0,6.0,81,0.00,,,0.00,meteohub,2013-05-09 06:06:00,
2013-05-08 23:11:00,53.6,47.8,29.57,SW,225,4.0,6.0,81,0.00,,,0.00,meteohub,2013-05-09 06:11:00,
2013-05-08 23:16:00,53.6,47.8,29.57,SW,225,2.0,6.0,81,0.00,,,0.00,meteohub,2013-05-09 06:16:00,
2013-05-08 23:21:00,53.2,47.8,29.57,SW,225,2.0,5.0,82,0.00,,,0.00,meteohub,2013-05-09 06:21:00,
2013-05-08 23:26:00,52.9,47.8,29.58,SW,225,2.0,5.0,83,0.00,,,0.00,meteohub,2013-05-09 06:26:00,
2013-05-08 23:31:00,52.9,47.8,29.57,SW,225,2.0,3.0,83,0.00,,,0.00,meteohub,2013-05-09 06:31:00,
2013-05-08 23:36:00,52.9,47.8,29.57,West,270,2.0,3.0,83,0.00,,,0.00,meteohub,2013-05-09 06:36:00,
2013-05-08 23:41:00,52.5,47.8,29.58,SW,225,2.0,3.0,84,0.00,,,0.00,meteohub,2013-05-09 06:41:00,
2013-05-08 23:46:00,52.3,48.0,29.57,SW,225,2.0,4.0,85,0.00,,,0.00,meteohub,2013-05-09 06:46:00,
2013-05-08 23:51:00,52.3,48.0,29.57,West,270,2.0,4.0,85,0.00,,,0.00,meteohub,2013-05-09 06:51:00,
2013-05-08 23:56:00,52.2,47.8,29.57,SW,225,2.0,2.0,85,0.00,,,0.00,meteohub,2013-05-09 06:56:00,